createdAt,value
2022-08-12T00:04:02.163Z,21.99
2022-08-12T00:09:26.257Z,21.98
2022-08-12T00:14:48.259Z,21.95
2022-08-12T00:20:09.358Z,21.97
2022-08-12T00:25:50.877Z,21.99
2022-08-12T00:31:12.326Z,21.97
2022-08-12T00:36:36.183Z,21.92
2022-08-12T00:41:57.816Z,21.90
2022-08-12T00:47:03.345Z,21.88
2022-08-12T00:52:07.477Z,21.80
2022-08-12T00:57:12.964Z,21.75
2022-08-12T01:02:25.468Z,21.68
2022-08-12T01:07:47.113Z,21.63
2022-08-12T01:12:50.724Z,21.62
2022-08-12T01:17:55.434Z,21.57
2022-08-12T01:23:38.063Z,21.52
2022-08-12T01:28:45.347Z,21.50
2022-08-12T01:33:59.752Z,21.45
2022-08-12T01:39:03.862Z,21.41
2022-08-12T01:44:10.351Z,21.34
2022-08-12T01:49:35.225Z,21.26
2022-08-12T01:54:42.897Z,21.21
2022-08-12T01:59:53.434Z,21.15
2022-08-12T02:05:23.423Z,21.09
2022-08-12T02:11:03.539Z,21.01
2022-08-12T02:16:15.081Z,20.94
2022-08-12T02:21:26.834Z,20.85
2022-08-12T02:26:34.077Z,20.78
2022-08-12T02:31:39.581Z,20.71
2022-08-12T02:36:45.511Z,20.64
2022-08-12T02:41:52.053Z,20.58
2022-08-12T02:47:02.339Z,20.50
2022-08-12T02:52:05.939Z,20.43
2022-08-12T02:57:10.058Z,20.38
2022-08-12T03:02:17.647Z,20.34
2022-08-12T03:07:55.931Z,20.28
2022-08-12T03:12:53.620Z,20.17
2022-08-12T03:18:24.228Z,20.10
2022-08-12T03:23:30.825Z,20.05
2022-08-12T03:28:51.914Z,20.04
2022-08-12T03:34:01.754Z,20.06
2022-08-12T03:39:35.888Z,20.05
2022-08-12T03:45:00.493Z,20.02
2022-08-12T03:50:23.389Z,19.99
2022-08-12T03:55:44.077Z,19.94
2022-08-12T04:00:47.589Z,19.88
2022-08-12T04:05:55.866Z,19.83
2022-08-12T04:11:17.495Z,19.72
2022-08-12T04:16:21.299Z,19.68
2022-08-12T04:21:26.057Z,19.65
2022-08-12T04:26:30.067Z,19.64
2022-08-12T04:31:33.701Z,19.67
2022-08-12T04:36:39.385Z,19.58
2022-08-12T04:41:54.406Z,19.57
2022-08-12T04:47:01.609Z,19.52
2022-08-12T04:52:06.679Z,19.51
2022-08-12T04:57:10.050Z,19.57
2022-08-12T05:02:16.499Z,19.62
2022-08-12T05:07:24.282Z,19.62
2022-08-12T05:12:29.441Z,19.62
2022-08-12T05:17:32.308Z,19.61
2022-08-12T05:22:40.036Z,19.68
2022-08-12T05:27:55.469Z,19.72
2022-08-12T05:33:05.223Z,19.74
2022-08-12T05:38:27.645Z,19.78
2022-08-12T05:43:30.785Z,19.80
2022-08-12T05:48:33.741Z,19.81
2022-08-12T05:53:38.383Z,19.85
2022-08-12T05:58:41.578Z,19.89
2022-08-12T06:03:44.789Z,19.91
2022-08-12T06:08:53.773Z,20.01
2022-08-12T06:13:58.490Z,20.06
2022-08-12T06:19:01.521Z,20.12
2022-08-12T06:24:08.157Z,20.20
2022-08-12T06:30:08.935Z,20.29
2022-08-12T06:35:25.856Z,20.38
2022-08-12T06:40:06.076Z,20.48
2022-08-12T06:45:12.317Z,20.57
2022-08-12T06:50:16.903Z,20.66
2022-08-12T06:55:25.491Z,20.76
2022-08-12T07:00:32.837Z,20.88
2022-08-12T07:05:36.124Z,20.99
2022-08-12T07:10:45.746Z,21.11
2022-08-12T07:15:48.793Z,21.21
2022-08-12T07:20:53.209Z,21.36
2022-08-12T07:25:59.175Z,21.49
2022-08-12T07:31:04.998Z,21.63
2022-08-12T07:36:11.937Z,21.79
2022-08-12T07:41:18.149Z,22.02
2022-08-12T07:46:25.891Z,22.31
2022-08-12T07:51:30.275Z,22.67
2022-08-12T07:56:34.911Z,23.10
2022-08-12T08:01:38.973Z,23.45
2022-08-12T08:06:43.306Z,23.85
2022-08-12T08:12:06.157Z,24.22
2022-08-12T08:17:11.503Z,24.64
2022-08-12T08:22:14.445Z,25.10
2022-08-12T08:27:18.949Z,25.63
2022-08-12T08:32:22.223Z,26.05
2022-08-12T08:37:26.939Z,26.53
2022-08-12T08:42:40.552Z,27.20
2022-08-12T08:47:47.142Z,27.58
2022-08-12T08:52:50.274Z,27.95
2022-08-12T08:57:55.941Z,28.50
2022-08-12T09:02:59.920Z,28.79
2022-08-12T09:14:12.476Z,29.87
2022-08-12T09:18:57.644Z,30.20
2022-08-12T09:24:07.653Z,30.74
2022-08-12T09:29:14.097Z,31.11
2022-08-12T09:34:29.490Z,31.41
2022-08-12T09:40:06.574Z,31.86
2022-08-12T09:45:23.065Z,32.15
2022-08-12T09:50:27.353Z,32.42
2022-08-12T09:56:21.611Z,32.70
2022-08-12T10:00:55.214Z,33.15
2022-08-12T10:06:27.238Z,33.30
2022-08-12T10:12:10.562Z,33.46
2022-08-12T10:17:08.963Z,33.60
2022-08-12T10:22:16.792Z,33.77
2022-08-12T10:28:03.883Z,34.38
2022-08-12T10:33:02.913Z,34.74
2022-08-12T10:38:39.345Z,35.12
2022-08-12T10:43:56.034Z,35.24
2022-08-12T10:49:06.957Z,35.30
2022-08-12T10:54:27.696Z,35.49
2022-08-12T11:00:01.466Z,35.53
2022-08-12T11:04:58.068Z,35.60
2022-08-12T11:10:02.881Z,35.51
2022-08-12T11:15:14.692Z,35.44
2022-08-12T11:20:28.980Z,35.69
2022-08-12T11:25:56.413Z,35.75
2022-08-12T11:30:57.129Z,36.12
2022-08-12T11:36:13.964Z,36.02
2022-08-12T11:41:17.873Z,35.94
2022-08-12T11:46:36.729Z,36.13
2022-08-12T11:51:41.512Z,36.23
2022-08-12T11:56:52.403Z,36.31
2022-08-12T12:02:05.372Z,36.23
2022-08-12T12:07:11.233Z,36.18
2022-08-12T12:12:15.038Z,36.33
2022-08-12T12:17:18.777Z,36.48
2022-08-12T12:22:26.976Z,36.60
2022-08-12T12:28:05.118Z,36.97
2022-08-12T12:33:13.088Z,36.97
2022-08-12T12:38:25.480Z,36.64
2022-08-12T12:43:43.319Z,36.70
2022-08-12T12:48:50.568Z,36.61
2022-08-12T12:54:07.118Z,36.47
2022-08-12T12:59:56.226Z,36.56
2022-08-12T13:04:37.426Z,36.70
2022-08-12T13:09:46.503Z,36.77
2022-08-12T13:14:50.207Z,36.76
2022-08-12T13:19:55.447Z,36.78
2022-08-12T13:25:01.704Z,36.80
2022-08-12T13:30:11.641Z,36.76
2022-08-12T13:35:19.909Z,36.99
2022-08-12T13:40:40.551Z,36.95
2022-08-12T13:45:43.509Z,36.71
2022-08-12T13:50:47.734Z,37.01
2022-08-12T13:55:59.872Z,37.12
2022-08-12T14:01:06.450Z,37.32
2022-08-12T14:06:15.395Z,37.41
2022-08-12T14:11:25.486Z,37.51
2022-08-12T14:16:37.781Z,37.62
2022-08-12T14:21:59.615Z,37.74
2022-08-12T14:27:09.392Z,37.64
2022-08-12T14:32:16.772Z,37.53
2022-08-12T14:37:54.971Z,37.75
2022-08-12T14:42:47.226Z,37.88
2022-08-12T14:47:58.505Z,37.90
2022-08-12T14:58:26.982Z,37.73
2022-08-12T15:03:52.540Z,37.69
2022-08-12T15:08:54.447Z,37.84
2022-08-12T15:13:58.781Z,37.91
2022-08-12T15:19:01.739Z,37.94
2022-08-12T15:24:15.688Z,37.79
2022-08-12T15:29:21.719Z,37.77
2022-08-12T15:34:24.751Z,37.71
2022-08-12T15:39:34.472Z,37.65
2022-08-12T15:44:42.900Z,37.55
2022-08-12T15:49:59.831Z,37.36
2022-08-12T15:55:05.956Z,37.44
2022-08-12T16:00:31.802Z,37.44
2022-08-12T16:06:11.633Z,37.30
2022-08-12T16:11:07.147Z,37.32
2022-08-12T16:16:22.716Z,37.52
2022-08-12T16:21:51.181Z,37.52
2022-08-12T16:26:54.242Z,37.40
2022-08-12T16:32:00.425Z,38.44
2022-08-12T16:37:04.544Z,40.48
2022-08-12T16:42:10.389Z,42.29
2022-08-12T16:47:15.737Z,43.67
2022-08-12T16:52:21.806Z,43.98
2022-08-12T16:57:42.949Z,43.22
2022-08-12T17:02:57.157Z,41.31
2022-08-12T17:08:01.688Z,40.15
2022-08-12T17:13:09.447Z,39.26
2022-08-12T17:18:45.388Z,38.56
2022-08-12T17:23:48.659Z,37.98
2022-08-12T17:28:57.713Z,37.47
2022-08-12T17:34:02.268Z,36.92
2022-08-12T17:39:09.261Z,36.62
2022-08-12T17:44:12.519Z,36.38
2022-08-12T17:50:02.256Z,36.08
2022-08-12T17:54:43.340Z,35.71
2022-08-12T17:59:49.538Z,35.49
2022-08-12T18:05:05.226Z,35.07
2022-08-12T18:10:35.572Z,34.79
2022-08-12T18:16:03.961Z,34.49
2022-08-12T18:21:03.595Z,34.24
2022-08-12T18:26:26.747Z,33.90
2022-08-12T18:31:44.787Z,33.58
2022-08-12T18:36:57.115Z,33.13
2022-08-12T18:42:02.191Z,32.66
2022-08-12T18:47:09.623Z,32.34
2022-08-12T18:52:18.623Z,32.04
2022-08-12T18:58:06.942Z,31.67
2022-08-12T19:02:49.240Z,31.31
2022-08-12T19:08:01.290Z,31.00
2022-08-12T19:13:24.343Z,30.70
2022-08-12T19:18:29.798Z,30.40
2022-08-12T19:23:35.971Z,30.12
2022-08-12T19:28:39.188Z,29.77
2022-08-12T19:33:43.328Z,29.54
2022-08-12T19:39:01.870Z,29.29
2022-08-12T19:44:16.794Z,29.05
2022-08-12T19:49:23.103Z,28.79
2022-08-12T19:54:30.223Z,28.52
2022-08-12T19:59:43.458Z,28.28
2022-08-12T20:06:03.873Z,28.14
2022-08-12T20:10:35.413Z,27.91
2022-08-12T20:15:44.572Z,27.74
2022-08-12T20:20:48.771Z,27.50
2022-08-12T20:26:01.890Z,27.37
2022-08-12T20:31:08.359Z,27.21
2022-08-12T20:36:40.807Z,27.03
2022-08-12T20:41:37.212Z,26.82
2022-08-12T20:46:40.177Z,26.63
2022-08-12T20:51:55.050Z,26.47
2022-08-12T20:57:00.967Z,26.29
2022-08-12T21:02:04.754Z,26.16
2022-08-12T21:07:10.474Z,26.02
2022-08-12T21:12:24.746Z,25.89
2022-08-12T21:17:33.891Z,25.74
2022-08-12T21:22:56.503Z,25.55
2022-08-12T21:28:07.003Z,25.46
2022-08-12T21:33:10.797Z,25.36
2022-08-12T21:38:17.953Z,25.20
2022-08-12T21:43:23.443Z,25.08
2022-08-12T21:48:26.666Z,24.98
2022-08-12T21:54:05.947Z,24.86
2022-08-12T21:58:54.128Z,24.80
2022-08-12T22:04:15.485Z,24.69
2022-08-12T22:09:18.535Z,24.61
2022-08-12T22:14:24.012Z,24.50
2022-08-12T22:19:27.378Z,24.41
2022-08-12T22:24:30.927Z,24.31
2022-08-12T22:29:53.000Z,24.21
2022-08-12T22:35:10.187Z,24.09
2022-08-12T22:40:25.303Z,24.01
2022-08-12T22:45:48.635Z,23.91
2022-08-12T22:50:59.762Z,23.80
2022-08-12T22:56:06.288Z,23.69
2022-08-12T23:01:13.771Z,23.56
2022-08-12T23:06:26.915Z,23.48
2022-08-12T23:11:36.266Z,23.40
2022-08-12T23:16:47.210Z,23.30
2022-08-12T23:22:06.660Z,23.21
2022-08-12T23:27:44.277Z,23.14
2022-08-12T23:32:59.856Z,23.06
2022-08-12T23:38:04.002Z,22.96
2022-08-12T23:43:06.896Z,22.84
2022-08-12T23:48:31.517Z,22.74
2022-08-12T23:53:34.801Z,22.64
2022-08-12T23:58:37.799Z,22.55
